WetterOnline ( http://www.wetteronline.de )

Wetter aktuell PLZ Bereich 71543

Aktuelles Wetter: Kaisersbach-Cronhütte (489m)

6-stündlich | Neueste Meldungen
Ortszeit Temperatur Wetter
Mi, 15.08. 8:00 12.6° C wolkig
Mi, 15.08. 2:00 12.4° C fast wolkenlos
Di, 14.08. 20:00 19.4° C bedeckt
Di, 14.08. 14:00 20.9° C bewölkt
Di, 14.08. 8:00 15.6° C wolkig
Di, 14.08. 2:00 15.0° C bedeckt
Mo, 13.08. 20:00 19.0° C wolkig
Mo, 13.08. 14:00 20.1° C leichter Regen
Ortszeit Temperatur Wetter
Mi, 15.08. 12:30 21.0° C bewölkt
Mi, 15.08. 12:10 21.0° C bewölkt
Mi, 15.08. 12:00 20.5° C bewölkt
Mi, 15.08. 11:50 20.5° C bewölkt
Mi, 15.08. 11:40 21.4° C bewölkt
Mi, 15.08. 11:30 20.0° C bewölkt
Mi, 15.08. 11:00 19.6° C bedeckt
Mi, 15.08. 10:30 18.5° C bedeckt
Mi, 15.08. 10:00 18.3° C bedeckt
Mi, 15.08. 9:30 17.4° C bedeckt
Mi, 15.08. 9:00 16.2° C bedeckt
Ortszeit Relative Feuchte Sichtweite
Mi, 15.08. 8:00 92% 20 km
Mi, 15.08. 2:00 91% 35 km
Di, 14.08. 20:00 63% 70 km
Di, 14.08. 14:00 52% 50 km
Di, 14.08. 8:00 84% 70 km
Di, 14.08. 2:00 97% 5.0 km
Mo, 13.08. 20:00 83% 65 km
Mo, 13.08. 14:00 68% 40 km
Ortszeit Relative Feuchte Sichtweite
Mi, 15.08. 12:30 57% 40 km
Mi, 15.08. 12:10 58% -
Mi, 15.08. 12:00 59% 40 km
Mi, 15.08. 11:50 59% -
Mi, 15.08. 11:40 58% -
Mi, 15.08. 11:30 65% 45 km
Mi, 15.08. 11:00 66% 30 km
Mi, 15.08. 10:30 70% 35 km
Mi, 15.08. 10:00 73% 30 km
Mi, 15.08. 9:30 76% 30 km
Mi, 15.08. 9:00 84% 30 km
Ortszeit Niederschlagsmenge Niederschlagsart
Mi, 15.08. 8:00 0.0 l/m2 in 12 Std. -
Mi, 15.08. 2:00 0.0 l/m2 in 6 Std. -
Di, 14.08. 20:00 0.1 l/m2 in 12 Std. Sprühregen
Di, 14.08. 14:00 0.0 l/m2 in 6 Std. -
Di, 14.08. 8:00 0.1 l/m2 in 12 Std. -
Di, 14.08. 2:00 0.1 l/m2 in 6 Std. Sprühregen
Mo, 13.08. 20:00 0.6 l/m2 in 12 Std. Regen
Mo, 13.08. 14:00 0.1 l/m2 in 6 Std. Regen
Ortszeit Niederschlagsmenge Niederschlagsart
Mi, 15.08. 12:30 0.0 l/m2 in 1 Std. -
Mi, 15.08. 12:10 keine Meldung -
Mi, 15.08. 12:00 0.0 l/m2 in 1 Std. -
Mi, 15.08. 11:50 keine Meldung -
Mi, 15.08. 11:40 keine Meldung -
Mi, 15.08. 11:30 0.0 l/m2 in 1 Std. -
Mi, 15.08. 11:00 0.0 l/m2 in 1 Std. -
Mi, 15.08. 10:30 0.0 l/m2 in 1 Std. -
Mi, 15.08. 10:00 0.0 l/m2 in 1 Std. -
Mi, 15.08. 9:30 0.0 l/m2 in 1 Std. -
Mi, 15.08. 9:00 0.0 l/m2 in 1 Std. -
Ortszeit Stärke Spitze Richtung
km/h Bft. km/h Grad Sektor
Mi, 15.08. 8:00 0 0 4 - -
Mi, 15.08. 2:00 0 0 14 - -
Di, 14.08. 20:00 7 2 29 290° W
Di, 14.08. 14:00 17 3 30 270° W
Di, 14.08. 8:00 7 2 18 270° W
Di, 14.08. 2:00 0 0 14 - -
Mo, 13.08. 20:00 6 1 30 200° S
Mo, 13.08. 14:00 7 2 40 270° W
Ortszeit Stärke Spitze Richtung
km/h Bft. km/h Grad Sektor
Mi, 15.08. 12:30 7 2 18 280° W
Mi, 15.08. 12:10 9 2 - 250° W
Mi, 15.08. 12:00 9 2 15 280° W
Mi, 15.08. 11:50 9 2 - 280° W
Mi, 15.08. 11:40 7 2 - 230° SW
Mi, 15.08. 11:30 6 1 15 340° N
Mi, 15.08. 11:00 11 2 14 270° W
Mi, 15.08. 10:30 7 2 14 240° SW
Mi, 15.08. 10:00 4 1 7 200° S
Mi, 15.08. 9:30 4 1 4 180° S
Mi, 15.08. 9:00 4 1 4 110° O
Ortszeit Untergrenze Bedeckung Gattung
total tief tief mittel hoch
Mi, 15.08. 8:00 1440 m 6/8 6/8 - - -
Mi, 15.08. 2:00 1020 m 1/8 1/8 - - -
Di, 14.08. 20:00 1500 m 8/8 8/8 - - -
Di, 14.08. 14:00 1800 m 7/8 7/8 - - -
Di, 14.08. 8:00 480 m 6/8 6/8 - - -
Di, 14.08. 2:00 6000 m 8/8 8/8 - - -
Mo, 13.08. 20:00 2100 m 8/8 1/8 - - -
Mo, 13.08. 14:00 2100 m 8/8 1/8 - - -
Ortszeit Bedeckungsgrad in Achtel und Wolkenuntergrenze
Mi, 15.08. 12:30 4(900m) 7(1500m)
Mi, 15.08. 12:10 1(900m) 2(1140m) 7(1500m)
Mi, 15.08. 12:00 3(810m) 6(1200m) 7(1800m)
Mi, 15.08. 11:50 3(810m) 6(1200m) 7(1800m)
Mi, 15.08. 11:40 3(780m) 5(1500m) 7(1800m)
Mi, 15.08. 11:30 2(660m) 5(1200m) 7(1800m)
Mi, 15.08. 11:00 3(660m) 4(1050m) 8(1800m)
Mi, 15.08. 10:30 8(1800m)
Mi, 15.08. 10:00 8(1500m)
Mi, 15.08. 9:30 2(1380m) 8(1500m)
Mi, 15.08. 9:00 2(570m) 8(1500m)
Ortszeit Luftdruck NN (hPa) Tendenz (hPa in 3 Std.)
Mi, 15.08. 8:00 1021 + 0,4
Mi, 15.08. 2:00 1020 + 0,7
Di, 14.08. 20:00 1017 + 0,8
Di, 14.08. 14:00 1015 + 0,3
Di, 14.08. 8:00 1015 + 1,7
Di, 14.08. 2:00 1013 + 0,9
Mo, 13.08. 20:00 1010 - 0,3
Mo, 13.08. 14:00 1011 + 0,1
Ortszeit Luftdruck NN (hPa) Tendenz (hPa in 3 Std.)
Mi, 15.08. 12:30 1020 + 0,2
Mi, 15.08. 12:10 1020 keine Meldung
Mi, 15.08. 12:00 1020 + 0,2
Mi, 15.08. 11:50 1020 keine Meldung
Mi, 15.08. 11:40 1020 keine Meldung
Mi, 15.08. 11:30 1020 + 0,4
Mi, 15.08. 11:00 1021 + 0,7
Mi, 15.08. 10:30 1021 + 0,8
Mi, 15.08. 10:00 1021 + 0,9
Mi, 15.08. 9:30 1021 + 0,7
Mi, 15.08. 9:00 1021 + 0,7
Ortszeit Schneehöhe (cm)
Mi, 15.08. 8:00 -
Mi, 15.08. 2:00 -
Di, 14.08. 20:00 -
Di, 14.08. 14:00 -
Di, 14.08. 8:00 -
Di, 14.08. 2:00 -
Mo, 13.08. 20:00 -
Mo, 13.08. 14:00 -
Ortszeit Schneehöhe (cm)
Mi, 15.08. 12:30 -
Mi, 15.08. 12:10 -
Mi, 15.08. 12:00 -
Mi, 15.08. 11:50 -
Mi, 15.08. 11:40 -
Mi, 15.08. 11:30 -
Mi, 15.08. 11:00 -
Mi, 15.08. 10:30 -
Mi, 15.08. 10:00 -
Mi, 15.08. 9:30 -
Mi, 15.08. 9:00 -
Link zu dieser Seite / Seite empfehlen

Das Wetter in ...